createdAt,value
2023-05-02T00:00:22.938Z,12.08
2023-05-02T00:01:22.940Z,12.08
2023-05-02T00:02:23.028Z,12.05
2023-05-02T00:03:22.983Z,12.03
2023-05-02T00:04:22.946Z,12.04
2023-05-02T00:05:22.905Z,12.03
2023-05-02T00:06:22.994Z,12.01
2023-05-02T00:07:22.871Z,11.97
2023-05-02T00:08:22.848Z,11.97
2023-05-02T00:09:22.849Z,11.94
2023-05-02T00:10:22.829Z,11.94
2023-05-02T00:11:22.832Z,11.94
2023-05-02T00:12:22.799Z,11.93
2023-05-02T00:13:22.799Z,11.93
2023-05-02T00:14:22.784Z,11.93
2023-05-02T00:15:22.779Z,11.90
2023-05-02T00:16:22.811Z,11.94
2023-05-02T00:17:22.819Z,11.94
2023-05-02T00:18:22.775Z,11.90
2023-05-02T00:19:22.738Z,11.88
2023-05-02T00:20:22.714Z,11.87
2023-05-02T00:21:22.726Z,11.85
2023-05-02T00:22:22.697Z,11.85
2023-05-02T00:23:22.688Z,11.87
2023-05-02T00:24:22.676Z,11.87
2023-05-02T00:25:22.667Z,11.84
2023-05-02T00:26:22.669Z,11.82
2023-05-02T00:27:22.640Z,11.81
2023-05-02T00:28:22.638Z,11.84
2023-05-02T00:29:22.625Z,11.82
2023-05-02T00:30:22.613Z,11.82
2023-05-02T00:31:22.623Z,11.78
2023-05-02T00:32:22.605Z,11.75
2023-05-02T00:33:22.573Z,11.77
2023-05-02T00:34:22.567Z,11.75
2023-05-02T00:35:22.552Z,11.77
2023-05-02T00:36:22.560Z,11.74
2023-05-02T00:37:22.531Z,11.74
2023-05-02T00:38:22.524Z,11.75
2023-05-02T00:39:22.507Z,11.72
2023-05-02T00:40:22.498Z,11.67
2023-05-02T00:41:22.520Z,11.66
2023-05-02T00:42:22.480Z,11.66
2023-05-02T00:43:22.484Z,11.64
2023-05-02T00:44:22.456Z,11.63
2023-05-02T00:45:22.441Z,11.63
2023-05-02T00:46:22.485Z,11.64
2023-05-02T00:47:22.427Z,11.66
2023-05-02T00:48:22.414Z,11.66
2023-05-02T00:49:22.401Z,11.67
2023-05-02T00:50:22.392Z,11.64
2023-05-02T00:51:22.380Z,11.62
2023-05-02T00:52:22.374Z,11.60
2023-05-02T00:53:22.350Z,11.62
2023-05-02T00:54:22.360Z,11.62
2023-05-02T00:55:22.344Z,11.63
2023-05-02T00:56:22.337Z,11.64
2023-05-02T00:57:22.310Z,11.63
2023-05-02T00:58:22.306Z,11.59
2023-05-02T00:59:22.293Z,11.60
2023-05-02T01:00:22.287Z,11.60
2023-05-02T01:01:22.371Z,11.57
2023-05-02T01:02:22.330Z,11.56
2023-05-02T01:03:22.326Z,11.54
2023-05-02T01:04:22.319Z,11.53
2023-05-02T01:05:22.230Z,11.49
2023-05-02T01:06:22.262Z,11.49
2023-05-02T01:07:22.209Z,11.48
2023-05-02T01:08:22.204Z,11.46
2023-05-02T01:09:22.174Z,11.48
2023-05-02T01:10:22.168Z,11.46
2023-05-02T01:11:22.162Z,11.48
2023-05-02T01:12:22.144Z,11.46
2023-05-02T01:13:22.124Z,11.49
2023-05-02T01:14:22.126Z,11.51
2023-05-02T01:15:22.109Z,11.49
2023-05-02T01:16:22.153Z,11.48
2023-05-02T01:17:22.096Z,11.46
2023-05-02T01:18:22.083Z,11.44
2023-05-02T01:19:22.061Z,11.42
2023-05-02T01:20:22.056Z,11.44
2023-05-02T01:21:22.051Z,11.45
2023-05-02T01:22:22.035Z,11.42
2023-05-02T01:23:22.019Z,11.41
2023-05-02T01:24:22.020Z,11.38
2023-05-02T01:25:21.997Z,11.39
2023-05-02T01:26:22.000Z,11.38
2023-05-02T01:27:21.986Z,11.39
2023-05-02T01:28:21.964Z,11.39
2023-05-02T01:29:21.991Z,11.38
2023-05-02T01:30:21.945Z,11.31
2023-05-02T01:31:21.984Z,11.28
2023-05-02T01:32:21.932Z,11.28
2023-05-02T01:33:21.905Z,11.30
2023-05-02T01:34:21.909Z,11.30
2023-05-02T01:35:21.882Z,11.28
2023-05-02T01:36:21.887Z,11.27
2023-05-02T01:37:21.862Z,11.27
2023-05-02T01:38:21.858Z,11.28
2023-05-02T01:39:21.843Z,11.26
2023-05-02T01:40:21.833Z,11.23
2023-05-02T01:41:21.825Z,11.23
2023-05-02T01:42:21.818Z,11.24
2023-05-02T01:43:21.805Z,11.23
2023-05-02T01:44:21.793Z,11.24
2023-05-02T01:45:21.808Z,11.26
2023-05-02T01:46:21.829Z,11.23
2023-05-02T01:47:21.782Z,11.26
2023-05-02T01:48:21.750Z,11.26
2023-05-02T01:49:21.730Z,11.24
2023-05-02T01:50:21.728Z,11.26
2023-05-02T01:51:21.720Z,11.26
2023-05-02T01:52:21.730Z,11.23
2023-05-02T01:53:21.687Z,11.23
2023-05-02T01:54:21.682Z,11.21
2023-05-02T01:55:21.666Z,11.21
2023-05-02T01:56:21.676Z,11.21
2023-05-02T01:57:21.660Z,11.24
2023-05-02T01:58:21.638Z,11.24
2023-05-02T01:59:21.633Z,11.23
2023-05-02T02:00:21.617Z,11.21
2023-05-02T02:01:21.642Z,11.23
2023-05-02T02:02:21.594Z,11.24
2023-05-02T02:03:21.617Z,11.24
2023-05-02T02:04:21.624Z,11.26
2023-05-02T02:05:21.556Z,11.23
2023-05-02T02:06:21.630Z,11.23
2023-05-02T02:07:21.530Z,11.21
2023-05-02T02:08:21.532Z,11.24
2023-05-02T02:09:21.515Z,11.23
2023-05-02T02:10:21.517Z,11.21
2023-05-02T02:11:21.502Z,11.24
2023-05-02T02:12:21.482Z,11.24
2023-05-02T02:13:21.464Z,11.26
2023-05-02T02:14:21.459Z,11.21
2023-05-02T02:15:21.446Z,11.20
2023-05-02T02:16:21.460Z,11.23
2023-05-02T02:17:21.427Z,11.21
2023-05-02T02:18:21.413Z,11.20
2023-05-02T02:19:21.398Z,11.20
2023-05-02T02:20:21.390Z,11.20
2023-05-02T02:21:21.403Z,11.20
2023-05-02T02:22:21.371Z,11.23
2023-05-02T02:23:21.354Z,11.23
2023-05-02T02:24:21.344Z,11.24
2023-05-02T02:25:21.332Z,11.27
2023-05-02T02:26:21.335Z,11.26
2023-05-02T02:27:21.314Z,11.24
2023-05-02T02:28:21.302Z,11.23
2023-05-02T02:29:21.289Z,11.20
2023-05-02T02:30:21.312Z,11.21
2023-05-02T02:31:21.429Z,11.20
2023-05-02T02:32:21.262Z,11.21
2023-05-02T02:33:21.237Z,11.21
2023-05-02T02:34:21.256Z,11.21
2023-05-02T02:35:21.228Z,11.12
2023-05-02T02:36:21.211Z,11.12
2023-05-02T02:37:21.210Z,11.13
2023-05-02T02:38:21.190Z,11.13
2023-05-02T02:39:21.178Z,11.16
2023-05-02T02:40:21.178Z,11.12
2023-05-02T02:41:21.160Z,11.11
2023-05-02T02:42:21.149Z,11.09
2023-05-02T02:43:21.133Z,11.11
2023-05-02T02:44:21.125Z,11.09
2023-05-02T02:45:21.126Z,11.11
2023-05-02T02:46:21.128Z,11.12
2023-05-02T02:47:21.089Z,11.16
2023-05-02T02:48:21.077Z,11.19
2023-05-02T02:49:21.064Z,11.19
2023-05-02T02:50:21.081Z,11.19
2023-05-02T02:51:21.039Z,11.19
2023-05-02T02:52:21.063Z,11.20
2023-05-02T02:53:21.022Z,11.17
2023-05-02T02:54:27.034Z,11.19
2023-05-02T02:55:21.014Z,11.23
2023-05-02T02:56:20.989Z,11.24
2023-05-02T02:57:20.981Z,11.23
2023-05-02T02:58:20.970Z,11.26
2023-05-02T02:59:20.946Z,11.24
2023-05-02T03:00:21.005Z,11.26
2023-05-02T03:01:20.986Z,11.26
2023-05-02T03:02:20.918Z,11.24
2023-05-02T03:03:20.986Z,11.23
2023-05-02T03:04:20.940Z,11.24
2023-05-02T03:05:20.899Z,11.24
2023-05-02T03:06:20.904Z,11.23
2023-05-02T03:07:20.865Z,11.24
2023-05-02T03:08:20.858Z,11.26
2023-05-02T03:09:20.862Z,11.24
2023-05-02T03:10:20.840Z,11.23
2023-05-02T03:11:20.816Z,11.24
2023-05-02T03:12:20.811Z,11.28
2023-05-02T03:13:20.793Z,11.30
2023-05-02T03:14:20.801Z,11.30
2023-05-02T03:15:20.784Z,11.27
2023-05-02T03:16:20.808Z,11.26
2023-05-02T03:17:20.763Z,11.24
2023-05-02T03:18:20.742Z,11.24
2023-05-02T03:19:20.805Z,11.23
2023-05-02T03:20:20.759Z,11.23
2023-05-02T03:21:20.712Z,11.23
2023-05-02T03:22:20.707Z,11.23
2023-05-02T03:23:20.684Z,11.23
2023-05-02T03:24:20.677Z,11.21
2023-05-02T03:25:20.819Z,11.20
2023-05-02T03:26:20.655Z,11.19
2023-05-02T03:27:20.641Z,11.20
2023-05-02T03:28:20.639Z,11.19
2023-05-02T03:29:20.632Z,11.17
2023-05-02T03:30:20.611Z,11.13
2023-05-02T03:31:20.651Z,11.11
2023-05-02T03:32:20.599Z,11.12
2023-05-02T03:33:20.584Z,11.13
2023-05-02T03:34:20.561Z,11.16
2023-05-02T03:35:20.556Z,11.13
2023-05-02T03:36:20.555Z,11.13
2023-05-02T03:37:20.535Z,11.16
2023-05-02T03:38:20.515Z,11.16
2023-05-02T03:39:20.539Z,11.19
2023-05-02T03:40:20.499Z,11.19
2023-05-02T03:41:20.500Z,11.17
2023-05-02T03:42:20.476Z,11.16
2023-05-02T03:43:20.471Z,11.16
2023-05-02T03:44:20.451Z,11.16
2023-05-02T03:45:20.446Z,11.16
2023-05-02T03:46:20.454Z,11.17
2023-05-02T03:47:20.452Z,11.17
2023-05-02T03:48:20.409Z,11.16
2023-05-02T03:49:20.400Z,11.16
2023-05-02T03:50:20.386Z,11.13
2023-05-02T03:51:20.450Z,11.17
2023-05-02T03:52:20.361Z,11.17
2023-05-02T03:53:20.355Z,11.12
2023-05-02T03:54:20.354Z,11.16
2023-05-02T03:55:20.366Z,11.20
2023-05-02T03:56:20.419Z,11.20
2023-05-02T03:57:20.310Z,11.17
2023-05-02T03:58:20.296Z,11.16
2023-05-02T03:59:20.301Z,11.17
2023-05-02T04:00:20.286Z,11.19
2023-05-02T04:01:20.283Z,11.19
2023-05-02T04:02:20.329Z,11.17
2023-05-02T04:03:20.278Z,11.13
2023-05-02T04:04:20.239Z,11.13
2023-05-02T04:05:20.223Z,11.17
2023-05-02T04:06:20.237Z,11.19
2023-05-02T04:07:20.214Z,11.21
2023-05-02T04:08:20.186Z,11.21
2023-05-02T04:09:20.175Z,11.17
2023-05-02T04:10:20.168Z,11.12
2023-05-02T04:11:20.167Z,11.13
2023-05-02T04:12:20.149Z,11.11
2023-05-02T04:13:20.130Z,11.12
2023-05-02T04:14:20.124Z,11.11
2023-05-02T04:15:20.110Z,11.11
2023-05-02T04:16:20.234Z,11.13
2023-05-02T04:17:20.136Z,11.16
2023-05-02T04:18:20.082Z,11.19
2023-05-02T04:19:20.062Z,11.17
2023-05-02T04:20:20.075Z,11.13
2023-05-02T04:21:20.053Z,11.13
2023-05-02T04:22:20.042Z,11.13
2023-05-02T04:23:20.026Z,11.11
2023-05-02T04:24:20.011Z,11.12
2023-05-02T04:25:20.008Z,11.11
2023-05-02T04:26:19.991Z,11.09
2023-05-02T04:27:19.987Z,11.09
2023-05-02T04:28:19.974Z,11.08
2023-05-02T04:29:19.953Z,11.08
2023-05-02T04:30:19.954Z,11.09
2023-05-02T04:31:20.007Z,11.09
2023-05-02T04:32:19.916Z,11.12
2023-05-02T04:33:19.907Z,11.11
2023-05-02T04:34:19.898Z,11.09
2023-05-02T04:35:19.895Z,11.05
2023-05-02T04:36:19.878Z,11.08
2023-05-02T04:37:21.112Z,11.08
2023-05-02T04:38:19.856Z,11.05
2023-05-02T04:39:19.840Z,11.01
2023-05-02T04:40:19.876Z,10.98
2023-05-02T04:41:19.830Z,11.01
2023-05-02T04:42:19.818Z,11.01
2023-05-02T04:43:19.794Z,11.02
2023-05-02T04:44:19.793Z,11.01
2023-05-02T04:45:19.777Z,10.99
2023-05-02T04:46:19.792Z,10.99
2023-05-02T04:47:19.748Z,10.99
2023-05-02T04:48:19.738Z,10.94
2023-05-02T04:49:19.727Z,10.88
2023-05-02T04:50:19.885Z,10.78
2023-05-02T04:51:19.704Z,10.70
2023-05-02T04:52:19.701Z,10.69
2023-05-02T04:53:19.684Z,10.65
2023-05-02T04:54:19.676Z,10.65
2023-05-02T04:55:19.678Z,10.57
2023-05-02T04:56:19.663Z,10.55
2023-05-02T04:57:21.325Z,10.57
2023-05-02T04:58:19.649Z,10.54
2023-05-02T04:59:19.617Z,10.49
2023-05-02T05:00:19.624Z,10.43
2023-05-02T05:01:19.662Z,10.39
2023-05-02T05:02:19.672Z,10.35
2023-05-02T05:03:19.702Z,10.32
2023-05-02T05:04:19.744Z,10.22
2023-05-02T05:05:19.617Z,10.25
2023-05-02T05:06:19.664Z,10.28
2023-05-02T05:07:19.523Z,10.26
2023-05-02T05:08:19.520Z,10.24
2023-05-02T05:09:19.511Z,10.20
2023-05-02T05:10:19.505Z,10.22
2023-05-02T05:11:19.499Z,10.22
2023-05-02T05:12:19.476Z,10.25
2023-05-02T05:13:19.466Z,10.26
2023-05-02T05:14:19.464Z,10.26
2023-05-02T05:15:19.444Z,10.26
2023-05-02T05:16:19.502Z,10.26
2023-05-02T05:17:19.422Z,10.25
2023-05-02T05:18:19.422Z,10.25
2023-05-02T05:19:19.401Z,10.28
2023-05-02T05:20:19.385Z,10.29
2023-05-02T05:21:19.388Z,10.29
2023-05-02T05:22:19.371Z,10.31
2023-05-02T05:23:19.396Z,10.31
2023-05-02T05:24:19.345Z,10.34
2023-05-02T05:25:19.328Z,10.38
2023-05-02T05:26:19.346Z,10.35
2023-05-02T05:27:19.313Z,10.39
2023-05-02T05:28:19.305Z,10.39
2023-05-02T05:29:19.293Z,10.43
2023-05-02T05:30:19.300Z,10.36
2023-05-02T05:31:19.348Z,10.42
2023-05-02T05:32:19.261Z,10.49
2023-05-02T05:33:19.381Z,10.51
2023-05-02T05:34:19.236Z,10.54
2023-05-02T05:35:19.226Z,10.54
2023-05-02T05:36:20.008Z,10.55
2023-05-02T05:37:19.210Z,10.58
2023-05-02T05:38:19.190Z,10.63
2023-05-02T05:39:19.175Z,10.63
2023-05-02T05:40:19.165Z,10.65
2023-05-02T05:41:19.166Z,10.72
2023-05-02T05:42:19.154Z,10.69
2023-05-02T05:43:19.137Z,10.75
2023-05-02T05:44:19.128Z,10.81
2023-05-02T05:45:19.122Z,10.83
2023-05-02T05:46:19.108Z,10.84
2023-05-02T05:47:19.131Z,10.93
2023-05-02T05:48:19.129Z,10.94
2023-05-02T05:49:19.106Z,10.94
2023-05-02T05:50:19.066Z,10.91
2023-05-02T05:51:19.051Z,10.88
2023-05-02T05:52:19.034Z,10.87
2023-05-02T05:53:19.018Z,10.90
2023-05-02T05:54:19.014Z,10.88
2023-05-02T05:55:18.999Z,10.90
2023-05-02T05:56:19.023Z,10.90
2023-05-02T05:57:18.976Z,10.90
2023-05-02T05:58:18.971Z,10.86
2023-05-02T05:59:18.959Z,10.86
2023-05-02T06:00:18.949Z,10.88
2023-05-02T06:01:18.944Z,10.94
2023-05-02T06:02:18.998Z,10.98
2023-05-02T06:03:19.049Z,10.98
2023-05-02T06:04:18.920Z,10.93
2023-05-02T06:05:18.890Z,10.86
2023-05-02T06:06:18.929Z,10.80
2023-05-02T06:07:18.865Z,10.76
2023-05-02T06:08:18.866Z,10.80
2023-05-02T06:09:18.852Z,10.81
2023-05-02T06:10:18.838Z,10.81
2023-05-02T06:11:18.837Z,10.78
2023-05-02T06:12:18.856Z,10.78
2023-05-02T06:13:18.802Z,10.70
2023-05-02T06:14:18.792Z,10.70
2023-05-02T06:15:18.781Z,10.55
2023-05-02T06:16:18.803Z,10.43
2023-05-02T06:17:18.755Z,10.20
2023-05-02T06:18:18.750Z,10.09
2023-05-02T06:19:18.733Z,9.93
2023-05-02T06:20:18.941Z,9.58
2023-05-02T06:21:18.749Z,9.53
2023-05-02T06:22:18.701Z,9.44
2023-05-02T06:23:18.687Z,9.40
2023-05-02T06:24:18.686Z,9.42
2023-05-02T06:25:18.681Z,9.37
2023-05-02T06:26:19.469Z,9.37
2023-05-02T06:27:18.642Z,9.40
2023-05-02T06:28:18.673Z,9.27
2023-05-02T06:29:18.626Z,9.22
2023-05-02T06:30:18.622Z,9.15
2023-05-02T06:31:18.727Z,9.12
2023-05-02T06:32:18.613Z,9.04
2023-05-02T06:33:18.623Z,9.03
2023-05-02T06:34:18.564Z,9.06
2023-05-02T06:35:18.564Z,9.10
2023-05-02T06:36:18.557Z,9.15
2023-05-02T06:37:18.537Z,9.12
2023-05-02T06:38:18.591Z,9.12
2023-05-02T06:39:18.521Z,9.12
2023-05-02T06:40:18.594Z,9.10
2023-05-02T06:41:18.555Z,9.08
2023-05-02T06:42:18.479Z,9.06
2023-05-02T06:43:18.473Z,9.08
2023-05-02T06:44:18.456Z,9.16
2023-05-02T06:45:18.455Z,9.19
2023-05-02T06:46:18.476Z,9.19
2023-05-02T06:47:18.591Z,9.20
2023-05-02T06:48:18.663Z,9.22
2023-05-02T06:49:18.402Z,9.17
2023-05-02T06:50:18.391Z,9.20
2023-05-02T06:51:18.390Z,9.17
2023-05-02T06:52:18.375Z,9.06
2023-05-02T06:53:18.357Z,9.04
2023-05-02T06:54:18.343Z,9.04
2023-05-02T06:55:18.344Z,9.08
2023-05-02T06:56:18.338Z,9.16
2023-05-02T06:57:18.325Z,9.17
2023-05-02T06:58:18.310Z,9.15
2023-05-02T06:59:18.301Z,9.16
2023-05-02T07:00:18.279Z,9.16
2023-05-02T07:01:18.333Z,9.13
2023-05-02T07:02:18.257Z,9.08
2023-05-02T07:03:18.258Z,9.12
2023-05-02T07:04:18.295Z,9.03
2023-05-02T07:05:18.239Z,9.06
2023-05-02T07:06:18.250Z,9.08
2023-05-02T07:07:18.204Z,9.00
2023-05-02T07:08:18.190Z,9.00
2023-05-02T07:09:18.204Z,9.03
2023-05-02T07:10:18.182Z,9.10
2023-05-02T07:11:18.173Z,9.15
2023-05-02T07:12:18.167Z,9.16
2023-05-02T07:13:18.159Z,9.12
2023-05-02T07:14:18.128Z,9.13
2023-05-02T07:15:18.119Z,9.04
2023-05-02T07:16:18.166Z,9.17
2023-05-02T07:17:18.095Z,9.24
2023-05-02T07:18:18.095Z,9.31
2023-05-02T07:19:18.075Z,9.34
2023-05-02T07:20:18.069Z,9.40
2023-05-02T07:21:18.064Z,9.37
2023-05-02T07:22:18.039Z,9.32
2023-05-02T07:23:18.048Z,9.22
2023-05-02T07:24:18.020Z,9.10
2023-05-02T07:25:18.015Z,9.08
2023-05-02T07:26:18.008Z,9.00
2023-05-02T07:27:17.999Z,9.00
2023-05-02T07:28:17.969Z,9.03
2023-05-02T07:29:17.977Z,9.01
2023-05-02T07:30:17.949Z,8.96
2023-05-02T07:31:19.028Z,8.93
2023-05-02T07:32:17.999Z,8.96
2023-05-02T07:33:17.985Z,9.00
2023-05-02T07:34:17.904Z,8.88
2023-05-02T07:35:17.998Z,8.83
2023-05-02T07:36:17.900Z,8.80
2023-05-02T07:37:17.878Z,8.80
2023-05-02T07:38:17.864Z,8.78
2023-05-02T07:39:17.860Z,8.70
2023-05-02T07:40:17.998Z,8.64
2023-05-02T07:41:17.864Z,8.65
2023-05-02T07:42:17.828Z,8.73
2023-05-02T07:43:17.810Z,8.70
2023-05-02T07:44:17.803Z,8.65
2023-05-02T07:45:17.795Z,8.73
2023-05-02T07:46:17.832Z,8.82
2023-05-02T07:47:17.929Z,8.68
2023-05-02T07:48:17.887Z,8.65
2023-05-02T07:49:17.920Z,8.64
2023-05-02T07:50:17.933Z,8.60
2023-05-02T07:51:17.979Z,8.55
2023-05-02T07:52:17.824Z,8.57
2023-05-02T07:53:17.894Z,8.58
2023-05-02T07:54:17.685Z,8.63
2023-05-02T07:55:17.681Z,8.61
2023-05-02T07:56:17.691Z,8.68
2023-05-02T07:57:17.663Z,8.75
2023-05-02T07:58:17.646Z,8.73
2023-05-02T07:59:17.639Z,8.80
2023-05-02T08:00:17.620Z,8.88
2023-05-02T08:01:17.687Z,8.96
2023-05-02T08:02:17.666Z,8.96
2023-05-02T08:03:17.665Z,8.94
2023-05-02T08:04:17.781Z,8.91
2023-05-02T08:05:17.601Z,9.06
2023-05-02T08:06:17.600Z,9.06
2023-05-02T08:07:17.552Z,9.13
2023-05-02T08:08:17.541Z,9.26
2023-05-02T08:09:17.525Z,9.38
2023-05-02T08:10:17.523Z,9.48
2023-05-02T08:11:17.534Z,9.55
2023-05-02T08:12:17.495Z,9.53
2023-05-02T08:13:17.495Z,9.67
2023-05-02T08:14:17.491Z,9.65
2023-05-02T08:15:17.469Z,9.80
2023-05-02T08:16:17.495Z,9.88
2023-05-02T08:17:17.477Z,9.96
2023-05-02T08:18:17.437Z,10.02
2023-05-02T08:19:17.433Z,10.10
2023-05-02T08:20:17.409Z,10.09
2023-05-02T08:21:17.413Z,10.11
2023-05-02T08:22:17.376Z,10.11
2023-05-02T08:23:17.371Z,9.98
2023-05-02T08:24:17.367Z,9.86
2023-05-02T08:25:17.360Z,9.86
2023-05-02T08:26:17.351Z,9.86
2023-05-02T08:27:17.331Z,9.92
2023-05-02T08:28:17.332Z,9.74
2023-05-02T08:29:17.310Z,9.74
2023-05-02T08:30:17.300Z,9.86
2023-05-02T08:31:17.343Z,9.85
2023-05-02T08:32:17.390Z,10.14
2023-05-02T08:33:17.422Z,10.01
2023-05-02T08:34:17.253Z,10.20
2023-05-02T08:35:17.232Z,10.16
2023-05-02T08:36:17.258Z,10.10
2023-05-02T08:37:17.216Z,10.35
2023-05-02T08:38:17.209Z,10.51
2023-05-02T08:39:17.197Z,10.58
2023-05-02T08:40:22.104Z,10.63
2023-05-02T08:41:17.183Z,10.62
2023-05-02T08:42:17.162Z,10.81
2023-05-02T08:43:17.161Z,10.91
2023-05-02T08:44:17.167Z,10.80
2023-05-02T08:45:17.138Z,10.66
2023-05-02T08:46:17.270Z,10.68
2023-05-02T08:47:17.172Z,10.60
2023-05-02T08:48:17.232Z,10.47
2023-05-02T08:49:17.091Z,10.54
2023-05-02T08:50:17.088Z,10.63
2023-05-02T08:51:17.069Z,10.32
2023-05-02T08:52:17.064Z,10.28
2023-05-02T08:53:17.053Z,10.29
2023-05-02T08:54:17.053Z,10.29
2023-05-02T08:55:17.028Z,10.36
2023-05-02T08:56:17.015Z,10.36
2023-05-02T08:57:16.994Z,10.32
2023-05-02T08:58:17.709Z,10.44
2023-05-02T08:59:16.989Z,10.51
2023-05-02T09:00:17.020Z,10.43
2023-05-02T09:01:16.985Z,10.34
2023-05-02T09:02:16.938Z,10.52
2023-05-02T09:03:16.980Z,10.42
2023-05-02T09:04:16.943Z,10.66
2023-05-02T09:05:16.925Z,10.69
2023-05-02T09:06:16.966Z,10.73
2023-05-02T09:07:16.918Z,10.51
2023-05-02T09:08:16.873Z,10.34
2023-05-02T09:09:18.436Z,10.36
2023-05-02T09:10:16.850Z,10.46
2023-05-02T09:11:16.849Z,10.43
2023-05-02T09:12:16.825Z,10.44
2023-05-02T09:13:16.809Z,10.49
2023-05-02T09:14:16.811Z,10.54
2023-05-02T09:15:19.218Z,10.46
2023-05-02T09:16:16.828Z,10.46
2023-05-02T09:17:16.785Z,10.43
2023-05-02T09:18:16.776Z,10.42
2023-05-02T09:19:16.753Z,10.46
2023-05-02T09:20:16.759Z,10.52
2023-05-02T09:21:19.710Z,10.43
2023-05-02T09:22:16.749Z,10.57
2023-05-02T09:23:16.696Z,10.72
2023-05-02T09:24:16.694Z,10.72
2023-05-02T09:25:16.681Z,10.81
2023-05-02T09:26:16.684Z,10.83
2023-05-02T09:27:16.660Z,11.01
2023-05-02T09:28:16.653Z,11.12
2023-05-02T09:29:16.636Z,11.28
2023-05-02T09:30:16.628Z,11.41
2023-05-02T09:31:22.975Z,11.17
2023-05-02T09:32:16.708Z,11.19
2023-05-02T09:33:17.552Z,11.31
2023-05-02T09:34:16.583Z,11.44
2023-05-02T09:35:16.582Z,11.46
2023-05-02T09:36:16.563Z,11.64
2023-05-02T09:37:16.570Z,11.64
2023-05-02T09:38:16.538Z,11.74
2023-05-02T09:39:16.543Z,11.79
2023-05-02T09:40:16.530Z,11.85
2023-05-02T09:41:16.521Z,11.84
2023-05-02T09:42:16.559Z,11.78
2023-05-02T09:43:16.485Z,11.59
2023-05-02T09:44:16.473Z,11.38
2023-05-02T09:45:16.464Z,11.31
2023-05-02T09:46:16.502Z,11.35
2023-05-02T09:47:16.452Z,11.42
2023-05-02T09:48:16.438Z,11.41
2023-05-02T09:49:16.418Z,11.38
2023-05-02T09:50:16.422Z,11.44
2023-05-02T09:51:16.404Z,11.26
2023-05-02T09:52:16.381Z,11.23
2023-05-02T09:53:16.375Z,11.19
2023-05-02T09:54:16.357Z,11.33
2023-05-02T09:55:16.355Z,11.42
2023-05-02T09:56:16.364Z,11.51
2023-05-02T09:57:16.333Z,11.72
2023-05-02T09:58:16.312Z,11.67
2023-05-02T09:59:16.341Z,11.19
2023-05-02T10:00:16.293Z,10.94
2023-05-02T10:01:16.328Z,10.76
2023-05-02T10:02:16.267Z,10.88
2023-05-02T10:03:16.431Z,11.05
2023-05-02T10:04:16.450Z,11.17
2023-05-02T10:05:16.240Z,11.11
2023-05-02T10:06:16.339Z,10.66
2023-05-02T10:07:16.243Z,10.58
2023-05-02T10:08:16.206Z,10.68
2023-05-02T10:09:20.581Z,10.88
2023-05-02T10:10:16.201Z,11.05
2023-05-02T10:11:16.216Z,11.21
2023-05-02T10:12:16.214Z,11.33
2023-05-02T10:13:16.229Z,11.05
2023-05-02T10:14:16.140Z,11.17
2023-05-02T10:15:16.127Z,11.42
2023-05-02T10:16:16.156Z,11.45
2023-05-02T10:17:16.109Z,11.49
2023-05-02T10:18:16.157Z,11.42
2023-05-02T10:19:16.094Z,11.17
2023-05-02T10:21:16.074Z,11.12
2023-05-02T10:22:16.049Z,10.95
2023-05-02T10:23:16.039Z,10.95
2023-05-02T10:24:16.024Z,10.95
2023-05-02T10:25:16.036Z,11.09
2023-05-02T10:26:16.025Z,11.17
2023-05-02T10:27:16.010Z,11.21
2023-05-02T10:28:15.978Z,11.42
2023-05-02T10:29:15.975Z,11.66
2023-05-02T10:30:16.007Z,11.78
2023-05-02T10:31:15.999Z,11.74
2023-05-02T10:32:15.937Z,11.44
2023-05-02T10:33:15.958Z,11.35
2023-05-02T10:34:15.919Z,11.36
2023-05-02T10:35:15.923Z,11.28
2023-05-02T10:36:15.927Z,11.11
2023-05-02T10:37:15.891Z,11.05
2023-05-02T10:38:15.876Z,11.03
2023-05-02T10:39:15.863Z,10.98
2023-05-02T10:40:15.908Z,10.98
2023-05-02T10:41:15.857Z,10.94
2023-05-02T10:42:15.833Z,10.98
2023-05-02T10:43:15.845Z,11.05
2023-05-02T10:44:15.810Z,11.12
2023-05-02T10:45:15.809Z,10.99
2023-05-02T10:46:15.839Z,10.93
2023-05-02T10:47:15.787Z,10.99
2023-05-02T10:48:15.768Z,10.99
2023-05-02T10:49:15.762Z,11.01
2023-05-02T10:50:15.765Z,11.06
2023-05-02T10:51:15.778Z,11.05
2023-05-02T10:52:15.724Z,11.08
2023-05-02T10:53:15.709Z,11.11
2023-05-02T10:54:15.687Z,10.84
2023-05-02T10:55:15.688Z,10.88
2023-05-02T10:56:15.707Z,10.90
2023-05-02T10:57:15.717Z,10.94
2023-05-02T10:58:15.647Z,10.98
2023-05-02T10:59:15.640Z,10.90
2023-05-02T11:00:15.627Z,11.08
2023-05-02T11:01:15.807Z,11.28
2023-05-02T11:02:15.665Z,11.33
2023-05-02T11:03:15.771Z,11.38
2023-05-02T11:04:15.581Z,11.45
2023-05-02T11:05:15.577Z,11.36
2023-05-02T11:06:15.594Z,11.45
2023-05-02T11:07:15.591Z,11.62
2023-05-02T11:08:15.744Z,11.56
2023-05-02T11:09:15.539Z,11.59
2023-05-02T11:10:15.521Z,11.36
2023-05-02T11:11:15.507Z,11.39
2023-05-02T11:12:15.506Z,11.56
2023-05-02T11:13:15.485Z,11.64
2023-05-02T11:14:15.471Z,11.74
2023-05-02T11:15:16.336Z,11.82
2023-05-02T11:16:15.479Z,11.78
2023-05-02T11:17:15.453Z,11.56
2023-05-02T11:18:15.451Z,11.27
2023-05-02T11:19:15.423Z,11.24
2023-05-02T11:20:15.414Z,11.23
2023-05-02T11:21:15.398Z,11.39
2023-05-02T11:22:15.407Z,11.38
2023-05-02T11:23:15.474Z,11.62
2023-05-02T11:24:15.360Z,11.51
2023-05-02T11:25:15.366Z,11.42
2023-05-02T11:26:15.347Z,11.36
2023-05-02T11:27:15.327Z,11.41
2023-05-02T11:28:15.340Z,11.51
2023-05-02T11:29:15.307Z,11.69
2023-05-02T11:30:15.296Z,11.79
2023-05-02T11:31:15.299Z,11.90
2023-05-02T11:32:15.365Z,11.97
2023-05-02T11:33:15.302Z,11.93
2023-05-02T11:34:15.246Z,11.87
2023-05-02T11:35:15.241Z,11.87
2023-05-02T11:36:15.237Z,11.87
2023-05-02T11:37:15.249Z,11.77
2023-05-02T11:38:15.204Z,11.49
2023-05-02T11:39:15.201Z,11.38
2023-05-02T11:40:15.189Z,11.27
2023-05-02T11:41:15.185Z,11.28
2023-05-02T11:42:15.172Z,11.31
2023-05-02T11:43:15.155Z,11.45
2023-05-02T11:44:15.144Z,11.42
2023-05-02T11:45:15.132Z,11.49
2023-05-02T11:46:15.168Z,11.66
2023-05-02T11:47:15.110Z,11.84
2023-05-02T11:48:15.197Z,11.93
2023-05-02T11:49:15.335Z,12.13
2023-05-02T11:50:15.073Z,12.13
2023-05-02T11:51:15.076Z,12.21
2023-05-02T11:52:15.057Z,12.38
2023-05-02T11:53:15.044Z,12.36
2023-05-02T11:54:15.041Z,12.56
2023-05-02T11:55:15.110Z,12.77
2023-05-02T11:56:15.049Z,12.85
2023-05-02T11:57:15.002Z,12.89
2023-05-02T11:58:14.993Z,13.07
2023-05-02T11:59:14.982Z,13.09
2023-05-02T12:00:14.969Z,13.22
2023-05-02T12:01:15.330Z,13.27
2023-05-02T12:02:14.966Z,13.41
2023-05-02T12:03:15.094Z,13.44
2023-05-02T12:04:14.936Z,13.46
2023-05-02T12:05:14.975Z,13.32
2023-05-02T12:06:15.401Z,13.25
2023-05-02T12:07:15.015Z,13.28
2023-05-02T12:08:14.874Z,12.76
2023-05-02T12:09:14.877Z,12.48
2023-05-02T12:10:14.885Z,12.44
2023-05-02T12:11:14.857Z,12.44
2023-05-02T12:12:14.835Z,12.46
2023-05-02T12:13:14.827Z,12.76
2023-05-02T12:14:14.832Z,12.77
2023-05-02T12:15:14.801Z,12.70
2023-05-02T12:16:14.865Z,12.59
2023-05-02T12:17:14.794Z,12.22
2023-05-02T12:18:14.792Z,12.18
2023-05-02T12:19:14.757Z,12.19
2023-05-02T12:20:14.754Z,12.34
2023-05-02T12:21:14.750Z,12.41
2023-05-02T12:22:14.725Z,12.56
2023-05-02T12:23:14.712Z,12.73
2023-05-02T12:24:14.708Z,12.81
2023-05-02T12:25:14.692Z,12.89
2023-05-02T12:26:14.691Z,12.84
2023-05-02T12:27:14.682Z,12.85
2023-05-02T12:28:14.650Z,13.04
2023-05-02T12:29:14.694Z,13.17
2023-05-02T12:30:14.634Z,13.29
2023-05-02T12:31:14.669Z,13.48
2023-05-02T12:32:14.603Z,13.38
2023-05-02T12:33:14.646Z,13.31
2023-05-02T12:34:14.588Z,13.31
2023-05-02T12:35:14.581Z,13.41
2023-05-02T12:36:14.584Z,12.94
2023-05-02T12:37:14.552Z,12.59
2023-05-02T12:38:14.553Z,12.51
2023-05-02T12:39:14.535Z,12.58
2023-05-02T12:40:14.522Z,12.55
2023-05-02T12:41:14.523Z,12.76
2023-05-02T12:42:14.507Z,12.92
2023-05-02T12:43:14.502Z,12.94
2023-05-02T12:44:14.489Z,12.67
2023-05-02T12:45:14.465Z,12.76
2023-05-02T12:46:14.465Z,12.95
2023-05-02T12:47:14.539Z,13.06
2023-05-02T12:48:14.483Z,12.98
2023-05-02T12:49:14.431Z,12.94
2023-05-02T12:50:14.406Z,12.95
2023-05-02T12:51:14.414Z,12.89
2023-05-02T12:52:14.395Z,12.80
2023-05-02T12:53:14.378Z,12.94
2023-05-02T12:54:14.366Z,13.12
2023-05-02T12:55:14.357Z,13.22
2023-05-02T12:56:14.351Z,13.17
2023-05-02T12:57:15.083Z,13.22